createdAt,value
2022-07-29T00:02:26.561Z,22.93
2022-07-29T00:04:53.497Z,23.02
2022-07-29T00:07:20.348Z,22.98
2022-07-29T00:09:51.951Z,22.99
2022-07-29T00:12:26.235Z,23.06
2022-07-29T00:14:57.532Z,23.11
2022-07-29T00:17:27.411Z,23.06
2022-07-29T00:19:54.195Z,23.09
2022-07-29T00:22:21.586Z,23.12
2022-07-29T00:24:50.229Z,23.22
2022-07-29T00:27:17.910Z,23.37
2022-07-29T00:29:44.529Z,23.40
2022-07-29T00:32:11.156Z,23.43
2022-07-29T00:34:56.609Z,23.47
2022-07-29T00:37:23.401Z,23.61
2022-07-29T00:39:50.202Z,23.76
2022-07-29T00:42:17.575Z,23.74
2022-07-29T00:44:44.868Z,23.67
2022-07-29T00:47:12.963Z,23.52
2022-07-29T00:49:43.335Z,23.33
2022-07-29T00:52:11.489Z,23.20
2022-07-29T00:54:44.182Z,23.06
2022-07-29T00:57:12.625Z,22.99
2022-07-29T00:59:39.344Z,22.94
2022-07-29T01:02:06.508Z,23.01
2022-07-29T01:04:33.979Z,22.90
2022-07-29T01:07:03.016Z,22.96
2022-07-29T01:09:42.787Z,23.14
2022-07-29T01:12:18.343Z,23.16
2022-07-29T01:14:46.788Z,23.14
2022-07-29T01:17:16.458Z,23.18
2022-07-29T01:19:57.092Z,23.11
2022-07-29T01:22:35.879Z,23.06
2022-07-29T01:25:35.552Z,23.06
2022-07-29T01:28:18.493Z,23.12
2022-07-29T01:30:47.784Z,23.08
2022-07-29T01:33:38.426Z,23.18
2022-07-29T01:36:11.824Z,23.14
2022-07-29T01:38:42.468Z,23.06
2022-07-29T01:41:17.581Z,22.94
2022-07-29T01:43:55.792Z,22.87
2022-07-29T01:46:33.053Z,22.76
2022-07-29T01:49:07.905Z,22.69
2022-07-29T01:51:42.870Z,22.59
2022-07-29T01:54:22.132Z,22.62
2022-07-29T01:56:52.012Z,22.62
2022-07-29T01:59:20.097Z,22.63
2022-07-29T02:01:49.536Z,22.58
2022-07-29T02:04:28.906Z,22.58
2022-07-29T02:07:02.012Z,22.61
2022-07-29T02:09:31.322Z,22.66
2022-07-29T02:12:00.565Z,22.72
2022-07-29T02:14:31.504Z,22.75
2022-07-29T02:17:02.048Z,22.77
2022-07-29T02:19:30.396Z,22.76
2022-07-29T02:21:58.668Z,22.79
2022-07-29T02:24:27.485Z,22.67
2022-07-29T02:26:57.462Z,22.53
2022-07-29T02:29:27.241Z,22.50
2022-07-29T02:31:56.349Z,22.31
2022-07-29T02:34:24.430Z,22.33
2022-07-29T02:36:52.551Z,22.33
2022-07-29T02:39:20.671Z,22.34
2022-07-29T02:41:56.230Z,22.36
2022-07-29T02:44:27.327Z,22.40
2022-07-29T02:47:41.871Z,22.49
2022-07-29T02:50:12.454Z,22.55
2022-07-29T02:52:45.061Z,22.44
2022-07-29T02:55:20.192Z,22.47
2022-07-29T02:58:02.517Z,22.40
2022-07-29T03:00:32.522Z,22.40
2022-07-29T03:03:03.301Z,22.41
2022-07-29T03:05:30.766Z,22.41
2022-07-29T03:08:02.173Z,22.45
2022-07-29T03:10:29.373Z,22.45
2022-07-29T03:12:57.526Z,22.44
2022-07-29T03:15:26.865Z,22.42
2022-07-29T03:17:54.825Z,22.37
2022-07-29T03:20:22.056Z,22.38
2022-07-29T03:22:49.135Z,22.47
2022-07-29T03:25:17.512Z,22.42
2022-07-29T03:27:45.320Z,22.41
2022-07-29T03:30:18.320Z,22.40
2022-07-29T03:32:48.673Z,22.28
2022-07-29T03:35:17.616Z,22.21
2022-07-29T03:37:47.823Z,22.13
2022-07-29T03:40:36.847Z,22.23
2022-07-29T03:43:04.631Z,22.22
2022-07-29T03:45:32.894Z,22.22
2022-07-29T03:48:03.300Z,22.09
2022-07-29T03:50:31.695Z,21.90
2022-07-29T03:52:59.127Z,21.73
2022-07-29T03:55:27.577Z,21.64
2022-07-29T03:57:54.536Z,21.58
2022-07-29T04:00:21.559Z,21.69
2022-07-29T04:02:49.816Z,21.77
2022-07-29T04:05:17.726Z,21.83
2022-07-29T04:07:45.939Z,21.71
2022-07-29T04:10:12.835Z,21.85
2022-07-29T04:12:39.605Z,21.93
2022-07-29T04:15:06.802Z,22.01
2022-07-29T04:17:33.428Z,22.06
2022-07-29T04:20:00.217Z,22.12
2022-07-29T04:22:26.890Z,22.07
2022-07-29T04:24:54.214Z,21.92
2022-07-29T04:27:20.808Z,21.87
2022-07-29T04:29:57.389Z,21.93
2022-07-29T04:32:25.140Z,22.00
2022-07-29T04:34:51.937Z,22.05
2022-07-29T04:37:18.592Z,22.10
2022-07-29T04:39:45.417Z,22.18
2022-07-29T04:42:12.086Z,22.27
2022-07-29T04:44:42.985Z,22.38
2022-07-29T04:47:10.474Z,22.48
2022-07-29T04:49:39.681Z,22.50
2022-07-29T04:52:07.197Z,22.55
2022-07-29T04:54:34.269Z,22.67
2022-07-29T04:57:00.931Z,22.64
2022-07-29T04:59:28.067Z,23.10
2022-07-29T05:01:55.049Z,23.48
2022-07-29T05:04:21.781Z,23.89
2022-07-29T05:06:48.675Z,23.84
2022-07-29T05:09:15.430Z,24.35
2022-07-29T05:11:42.224Z,24.88
2022-07-29T05:14:08.843Z,24.96
2022-07-29T05:16:36.222Z,25.54
2022-07-29T05:19:02.862Z,26.26
2022-07-29T05:21:29.887Z,26.58
2022-07-29T05:23:56.486Z,26.69
2022-07-29T05:26:23.217Z,26.96
2022-07-29T05:28:50.294Z,26.85
2022-07-29T05:31:17.469Z,26.58
2022-07-29T05:33:44.333Z,26.43
2022-07-29T05:36:11.130Z,26.76
2022-07-29T05:38:37.779Z,26.93
2022-07-29T05:41:07.733Z,27.32
2022-07-29T05:43:34.324Z,27.65
2022-07-29T05:46:01.507Z,27.67
2022-07-29T05:48:28.308Z,27.43
2022-07-29T05:50:55.466Z,27.43
2022-07-29T05:53:22.157Z,27.74
2022-07-29T05:55:49.837Z,28.09
2022-07-29T05:58:16.596Z,28.38
2022-07-29T06:00:43.154Z,28.33
2022-07-29T06:03:09.755Z,28.93
2022-07-29T06:05:36.329Z,29.08
2022-07-29T06:08:04.020Z,29.30
2022-07-29T06:10:30.664Z,29.14
2022-07-29T06:12:57.482Z,29.30
2022-07-29T06:15:24.048Z,29.45
2022-07-29T06:18:00.307Z,29.55
2022-07-29T06:20:31.136Z,29.74
2022-07-29T06:22:58.571Z,30.36
2022-07-29T06:25:25.119Z,29.92
2022-07-29T06:27:51.667Z,29.92
2022-07-29T06:30:18.276Z,29.96
2022-07-29T06:32:44.854Z,29.69
2022-07-29T06:35:37.795Z,29.48
2022-07-29T06:37:59.666Z,28.84
2022-07-29T06:40:45.229Z,29.43
2022-07-29T06:43:11.834Z,29.91
2022-07-29T06:45:42.150Z,30.70
2022-07-29T06:48:09.127Z,30.64
2022-07-29T06:50:35.735Z,30.73
2022-07-29T06:53:02.421Z,30.93
2022-07-29T06:55:29.010Z,31.18
2022-07-29T06:57:55.641Z,31.67
2022-07-29T07:00:22.314Z,31.47
2022-07-29T07:02:49.047Z,31.58
2022-07-29T07:05:15.632Z,32.42
2022-07-29T07:07:42.278Z,32.77
2022-07-29T07:10:09.289Z,32.96
2022-07-29T07:12:35.883Z,33.18
2022-07-29T07:15:02.601Z,32.97
2022-07-29T07:17:29.175Z,33.82
2022-07-29T07:19:56.012Z,33.60
2022-07-29T07:22:22.614Z,34.44
2022-07-29T07:24:49.233Z,34.68
2022-07-29T07:27:15.807Z,33.74
2022-07-29T07:29:44.009Z,32.01
2022-07-29T07:32:11.224Z,31.28
2022-07-29T07:34:39.040Z,31.82
2022-07-29T07:37:06.628Z,32.14
2022-07-29T07:39:33.135Z,32.44
2022-07-29T07:42:00.101Z,32.87
2022-07-29T07:44:26.930Z,33.48
2022-07-29T07:46:54.662Z,34.17
2022-07-29T07:49:21.806Z,34.37
2022-07-29T07:51:50.680Z,34.88
2022-07-29T07:54:20.526Z,34.51
2022-07-29T07:56:50.332Z,34.15
2022-07-29T07:59:19.808Z,34.01
2022-07-29T08:01:48.089Z,34.37
2022-07-29T08:04:26.890Z,34.27
2022-07-29T08:06:57.790Z,35.04
2022-07-29T08:09:29.675Z,34.89
2022-07-29T08:11:58.589Z,35.47
2022-07-29T08:14:25.305Z,35.33
2022-07-29T08:16:52.590Z,34.97
2022-07-29T08:19:19.341Z,35.60
2022-07-29T08:21:46.372Z,33.62
2022-07-29T08:24:31.587Z,33.35
2022-07-29T08:26:58.400Z,34.03
2022-07-29T08:29:25.068Z,33.70
2022-07-29T08:31:52.177Z,34.60
2022-07-29T08:34:18.902Z,35.57
2022-07-29T08:36:52.664Z,36.15
2022-07-29T08:39:19.268Z,36.81
2022-07-29T08:41:56.868Z,37.54
2022-07-29T08:44:30.600Z,37.31
2022-07-29T08:46:57.996Z,35.71
2022-07-29T08:49:24.807Z,35.16
2022-07-29T08:51:52.706Z,35.54
2022-07-29T08:54:19.975Z,34.94
2022-07-29T08:56:49.566Z,35.90
2022-07-29T08:59:19.430Z,35.92
2022-07-29T09:01:48.920Z,35.09
2022-07-29T09:04:17.322Z,35.11
2022-07-29T09:06:47.278Z,36.53
2022-07-29T09:09:14.736Z,36.35
2022-07-29T09:11:43.217Z,37.24
2022-07-29T09:14:12.298Z,37.54
2022-07-29T09:16:53.411Z,38.04
2022-07-29T09:19:35.776Z,38.12
2022-07-29T09:22:08.193Z,37.27
2022-07-29T09:24:35.349Z,37.63
2022-07-29T09:27:03.023Z,37.87
2022-07-29T09:29:33.297Z,37.05
2022-07-29T09:32:07.655Z,35.75
2022-07-29T09:34:34.390Z,36.05
2022-07-29T09:37:00.965Z,35.86
2022-07-29T09:39:34.937Z,36.16
2022-07-29T09:42:04.738Z,34.86
2022-07-29T09:44:49.184Z,35.19
2022-07-29T09:47:17.262Z,35.67
2022-07-29T09:50:01.165Z,35.86
2022-07-29T09:52:28.969Z,35.38
2022-07-29T09:55:09.420Z,35.69
2022-07-29T09:57:37.683Z,35.99
2022-07-29T10:00:09.627Z,35.71
2022-07-29T10:02:38.331Z,34.98
2022-07-29T10:05:07.383Z,34.27
2022-07-29T10:07:54.194Z,34.20
2022-07-29T10:10:24.937Z,35.22
2022-07-29T10:12:57.574Z,34.98
2022-07-29T10:15:29.324Z,34.97
2022-07-29T10:17:57.329Z,36.17
2022-07-29T10:20:24.870Z,36.17
2022-07-29T10:22:53.982Z,36.26
2022-07-29T10:25:21.608Z,35.98
2022-07-29T10:27:49.536Z,36.20
2022-07-29T10:30:17.544Z,36.50
2022-07-29T10:32:59.089Z,36.64
2022-07-29T10:35:45.314Z,36.99
2022-07-29T10:38:28.784Z,36.96
2022-07-29T10:41:36.269Z,36.81
2022-07-29T10:44:19.365Z,37.14
2022-07-29T10:46:46.914Z,35.97
2022-07-29T10:49:16.392Z,35.37
2022-07-29T10:52:13.126Z,34.90
2022-07-29T10:54:46.192Z,34.42
2022-07-29T10:57:53.489Z,34.36
2022-07-29T11:00:28.154Z,35.09
2022-07-29T11:02:57.570Z,34.91
2022-07-29T11:05:32.189Z,34.89
2022-07-29T11:08:21.038Z,35.14
2022-07-29T11:11:15.736Z,34.10
2022-07-29T11:13:51.515Z,34.09
2022-07-29T11:16:23.076Z,33.68
2022-07-29T11:19:14.074Z,33.80
2022-07-29T11:21:54.145Z,34.35
2022-07-29T11:24:32.178Z,34.34
2022-07-29T11:27:20.966Z,34.77
2022-07-29T11:29:50.740Z,35.26
2022-07-29T11:32:23.173Z,35.22
2022-07-29T11:35:16.619Z,35.26
2022-07-29T11:37:50.802Z,35.31
2022-07-29T11:40:22.992Z,35.32
2022-07-29T11:42:50.295Z,35.55
2022-07-29T11:45:42.155Z,35.41
2022-07-29T11:48:29.901Z,34.46
2022-07-29T11:50:59.627Z,34.66
2022-07-29T11:53:28.960Z,34.99
2022-07-29T11:56:00.208Z,34.57
2022-07-29T11:58:28.325Z,34.95
2022-07-29T12:00:56.302Z,35.15
2022-07-29T12:03:35.455Z,35.04
2022-07-29T12:06:12.262Z,34.77
2022-07-29T12:08:44.469Z,34.97
2022-07-29T12:11:21.275Z,34.91
2022-07-29T12:13:49.227Z,34.92
2022-07-29T12:16:16.706Z,34.60
2022-07-29T12:19:00.333Z,34.87
2022-07-29T12:21:28.732Z,35.22
2022-07-29T12:24:01.858Z,35.25
2022-07-29T12:26:31.815Z,35.11
2022-07-29T12:29:03.109Z,35.16
2022-07-29T12:31:41.954Z,35.19
2022-07-29T12:34:12.893Z,35.25
2022-07-29T12:36:39.590Z,35.14
2022-07-29T12:39:06.327Z,34.60
2022-07-29T12:41:33.335Z,34.92
2022-07-29T12:43:59.984Z,35.13
2022-07-29T12:46:27.083Z,35.19
2022-07-29T12:48:59.744Z,35.11
2022-07-29T12:51:44.425Z,35.22
2022-07-29T12:54:14.422Z,35.14
2022-07-29T12:56:44.174Z,35.23
2022-07-29T12:59:19.864Z,35.47
2022-07-29T13:01:51.749Z,35.25
2022-07-29T13:04:32.866Z,35.35
2022-07-29T13:07:04.930Z,35.42
2022-07-29T13:10:30.438Z,34.83
2022-07-29T13:13:07.014Z,34.70
2022-07-29T13:15:34.370Z,35.20
2022-07-29T13:18:01.493Z,34.85
2022-07-29T13:20:33.637Z,34.19
2022-07-29T13:23:01.655Z,34.21
2022-07-29T13:25:33.042Z,34.49
2022-07-29T13:28:00.728Z,34.65
2022-07-29T13:30:27.345Z,34.24
2022-07-29T13:32:54.410Z,34.31
2022-07-29T13:35:21.402Z,33.92
2022-07-29T13:37:48.248Z,34.29
2022-07-29T13:40:15.700Z,33.96
2022-07-29T13:42:43.040Z,33.98
2022-07-29T13:45:11.765Z,34.18
2022-07-29T13:47:38.839Z,34.28
2022-07-29T13:50:07.016Z,34.67
2022-07-29T13:52:34.468Z,34.78
2022-07-29T13:55:01.205Z,34.94
2022-07-29T13:57:28.036Z,34.52
2022-07-29T13:59:54.802Z,34.25
2022-07-29T14:02:25.474Z,34.54
2022-07-29T14:04:55.701Z,34.74
2022-07-29T14:07:23.154Z,34.93
2022-07-29T14:09:49.902Z,34.85
2022-07-29T14:12:16.883Z,34.52
2022-07-29T14:14:47.304Z,34.42
2022-07-29T14:17:14.307Z,34.59
2022-07-29T14:19:41.008Z,34.12
2022-07-29T14:22:09.633Z,33.83
2022-07-29T14:24:38.264Z,33.78
2022-07-29T14:27:06.872Z,33.76
2022-07-29T14:29:37.803Z,33.88
2022-07-29T14:32:11.379Z,33.87
2022-07-29T14:34:38.782Z,33.69
2022-07-29T14:37:06.968Z,33.54
2022-07-29T14:39:42.641Z,33.59
2022-07-29T14:42:12.634Z,33.62
2022-07-29T14:44:39.942Z,33.35
2022-07-29T14:47:08.040Z,33.51
2022-07-29T14:49:35.861Z,33.32
2022-07-29T14:52:02.927Z,33.29
2022-07-29T14:54:29.544Z,33.07
2022-07-29T14:56:58.168Z,33.00
2022-07-29T14:59:25.583Z,32.63
2022-07-29T15:01:52.303Z,32.62
2022-07-29T15:04:18.978Z,32.36
2022-07-29T15:06:45.529Z,32.27
2022-07-29T15:09:12.146Z,32.30
2022-07-29T15:11:39.024Z,32.28
2022-07-29T15:14:06.739Z,32.14
2022-07-29T15:16:33.814Z,32.03
2022-07-29T15:19:01.196Z,32.00
2022-07-29T15:21:28.547Z,32.15
2022-07-29T15:23:55.219Z,32.06
2022-07-29T15:26:22.094Z,31.92
2022-07-29T15:28:48.903Z,32.04
2022-07-29T15:31:16.055Z,31.87
2022-07-29T15:33:42.957Z,31.76
2022-07-29T15:36:09.671Z,31.81
2022-07-29T15:38:40.488Z,31.78
2022-07-29T15:41:08.986Z,31.86
2022-07-29T15:43:38.858Z,31.71
2022-07-29T15:46:23.836Z,31.76
2022-07-29T15:48:50.611Z,31.61
2022-07-29T15:51:17.325Z,31.71
2022-07-29T15:53:43.970Z,31.63
2022-07-29T15:56:20.960Z,31.48
2022-07-29T15:58:47.639Z,31.42
2022-07-29T16:01:14.727Z,31.23
2022-07-29T16:03:45.966Z,31.13
2022-07-29T16:06:13.555Z,31.16
2022-07-29T16:08:40.267Z,31.12
2022-07-29T16:11:07.033Z,31.08
2022-07-29T16:13:33.804Z,31.00
2022-07-29T16:16:02.653Z,30.97
2022-07-29T16:18:30.649Z,30.75
2022-07-29T16:20:57.756Z,30.74
2022-07-29T16:23:24.781Z,30.49
2022-07-29T16:25:59.577Z,30.36
2022-07-29T16:28:27.910Z,30.08
2022-07-29T16:30:54.655Z,29.95
2022-07-29T16:33:21.213Z,29.79
2022-07-29T16:35:47.981Z,29.70
2022-07-29T16:38:14.672Z,29.58
2022-07-29T16:40:42.116Z,29.46
2022-07-29T16:43:09.096Z,29.20
2022-07-29T16:45:42.559Z,29.11
2022-07-29T16:48:15.458Z,28.95
2022-07-29T16:50:44.927Z,28.85
2022-07-29T16:53:11.664Z,28.76
2022-07-29T16:55:38.670Z,28.70
2022-07-29T16:58:09.599Z,28.63
2022-07-29T17:00:36.592Z,28.53
2022-07-29T17:03:03.339Z,28.49
2022-07-29T17:05:29.918Z,28.37
2022-07-29T17:08:16.808Z,28.44
2022-07-29T17:10:43.416Z,28.39
2022-07-29T17:13:10.898Z,28.32
2022-07-29T17:15:37.539Z,28.30
2022-07-29T17:18:12.658Z,28.32
2022-07-29T17:20:42.036Z,28.27
2022-07-29T17:23:08.833Z,28.33
2022-07-29T17:25:35.571Z,28.32
2022-07-29T17:28:02.213Z,28.38
2022-07-29T17:30:29.803Z,28.43
2022-07-29T17:32:56.503Z,28.40
2022-07-29T17:35:41.748Z,28.38
2022-07-29T17:38:08.359Z,27.53
2022-07-29T17:40:34.985Z,27.33
2022-07-29T17:43:01.555Z,27.22
2022-07-29T17:45:50.303Z,27.23
2022-07-29T17:48:14.807Z,27.14
2022-07-29T17:50:41.445Z,27.19
2022-07-29T17:53:09.586Z,27.13
2022-07-29T17:55:45.210Z,27.15
2022-07-29T17:58:12.487Z,27.09
2022-07-29T18:00:39.353Z,27.04
2022-07-29T18:03:06.344Z,26.91
2022-07-29T18:05:33.145Z,26.98
2022-07-29T18:07:59.738Z,26.91
2022-07-29T18:10:26.588Z,26.90
2022-07-29T18:12:53.477Z,26.79
2022-07-29T18:15:20.259Z,26.65
2022-07-29T18:17:57.326Z,26.41
2022-07-29T18:20:26.219Z,26.19
2022-07-29T18:22:52.793Z,26.35
2022-07-29T18:25:19.512Z,26.33
2022-07-29T18:27:46.230Z,26.42
2022-07-29T18:30:14.965Z,26.25
2022-07-29T18:32:54.306Z,25.97
2022-07-29T18:35:28.884Z,25.75
2022-07-29T18:38:02.111Z,25.73
2022-07-29T18:40:29.983Z,25.63
2022-07-29T18:42:57.071Z,25.73
2022-07-29T18:45:28.313Z,25.85
2022-07-29T18:47:55.815Z,25.91
2022-07-29T18:50:28.892Z,25.94
2022-07-29T18:52:58.508Z,26.02
2022-07-29T18:55:26.208Z,26.00
2022-07-29T18:57:55.806Z,25.99
2022-07-29T19:00:23.912Z,26.02
2022-07-29T19:02:51.111Z,26.03
2022-07-29T19:05:22.385Z,26.04
2022-07-29T19:07:49.094Z,25.90
2022-07-29T19:10:15.684Z,25.53
2022-07-29T19:12:42.487Z,25.44
2022-07-29T19:15:10.588Z,25.59
2022-07-29T19:17:38.035Z,25.70
2022-07-29T19:20:05.708Z,25.56
2022-07-29T19:22:34.318Z,25.38
2022-07-29T19:25:01.191Z,25.35
2022-07-29T19:27:27.884Z,25.30
2022-07-29T19:29:59.006Z,25.08
2022-07-29T19:32:26.479Z,24.99
2022-07-29T19:35:11.590Z,24.94
2022-07-29T19:37:38.153Z,24.87
2022-07-29T19:40:06.642Z,24.86
2022-07-29T19:42:33.780Z,24.60
2022-07-29T19:45:00.372Z,24.59
2022-07-29T19:47:27.063Z,24.56
2022-07-29T19:49:53.740Z,24.44
2022-07-29T19:52:20.384Z,24.40
2022-07-29T19:54:47.088Z,24.41
2022-07-29T19:57:13.644Z,24.35
2022-07-29T19:59:41.047Z,24.31
2022-07-29T20:02:10.857Z,24.38
2022-07-29T20:04:37.880Z,24.35
2022-07-29T20:07:05.317Z,24.30
2022-07-29T20:09:31.927Z,24.39
2022-07-29T20:11:58.796Z,24.35
2022-07-29T20:14:25.417Z,24.44
2022-07-29T20:16:54.433Z,24.34
2022-07-29T20:19:21.369Z,24.28
2022-07-29T20:21:48.069Z,24.10
2022-07-29T20:24:14.791Z,24.01
2022-07-29T20:29:08.296Z,24.16
2022-07-29T20:31:36.386Z,24.06
2022-07-29T20:34:03.321Z,23.99
2022-07-29T20:36:32.725Z,23.96
2022-07-29T20:39:02.272Z,23.87
2022-07-29T20:41:29.178Z,23.82
2022-07-29T20:43:56.297Z,23.76
2022-07-29T20:46:28.355Z,23.64
2022-07-29T20:48:55.317Z,23.60
2022-07-29T20:51:24.504Z,23.68
2022-07-29T20:53:51.255Z,23.64
2022-07-29T20:56:18.031Z,23.70
2022-07-29T20:58:44.786Z,23.65
2022-07-29T21:01:11.703Z,23.67
2022-07-29T21:03:38.346Z,23.72
2022-07-29T21:06:05.025Z,23.78
2022-07-29T21:08:34.030Z,23.73
2022-07-29T21:11:01.053Z,23.74
2022-07-29T21:13:27.927Z,23.80
2022-07-29T21:15:59.089Z,23.88
2022-07-29T21:18:33.027Z,23.89
2022-07-29T21:21:04.018Z,23.82
2022-07-29T21:23:31.090Z,23.77
2022-07-29T21:25:58.450Z,23.69
2022-07-29T21:28:29.006Z,23.71
2022-07-29T21:31:00.939Z,23.80
2022-07-29T21:33:29.381Z,23.84
2022-07-29T21:36:42.796Z,23.77
2022-07-29T21:38:42.961Z,23.75
2022-07-29T21:41:12.490Z,23.73
2022-07-29T21:43:41.941Z,23.67
2022-07-29T21:46:09.540Z,23.66
2022-07-29T21:48:37.641Z,23.64
2022-07-29T21:51:06.656Z,23.59
2022-07-29T21:53:33.324Z,23.50
2022-07-29T21:56:00.370Z,23.40
2022-07-29T21:58:26.980Z,23.39
2022-07-29T22:00:54.022Z,23.46
2022-07-29T22:03:21.994Z,23.48
2022-07-29T22:05:49.026Z,23.49
2022-07-29T22:08:15.609Z,23.38
2022-07-29T22:10:42.159Z,23.26
2022-07-29T22:13:09.046Z,23.16
2022-07-29T22:15:35.679Z,23.17
2022-07-29T22:18:02.383Z,23.14
2022-07-29T22:20:29.062Z,23.13
2022-07-29T22:22:55.637Z,23.02
2022-07-29T22:25:23.074Z,23.01
2022-07-29T22:27:49.652Z,22.97
2022-07-29T22:30:16.968Z,22.90
2022-07-29T22:32:44.074Z,22.87
2022-07-29T22:35:10.917Z,22.84
2022-07-29T22:37:37.657Z,22.90
2022-07-29T22:40:05.125Z,22.84
2022-07-29T22:42:31.934Z,22.96
2022-07-29T22:44:58.652Z,22.96
2022-07-29T22:47:46.256Z,23.05
2022-07-29T22:50:12.153Z,23.08
2022-07-29T22:52:38.764Z,23.17
2022-07-29T22:55:05.751Z,23.18
2022-07-29T22:57:32.521Z,22.99
2022-07-29T23:00:01.723Z,22.99
2022-07-29T23:02:28.692Z,22.99
2022-07-29T23:04:55.417Z,22.76
2022-07-29T23:07:22.224Z,22.77
2022-07-29T23:09:48.917Z,22.78
2022-07-29T23:12:15.556Z,22.81
2022-07-29T23:14:42.300Z,22.88
2022-07-29T23:17:08.882Z,22.86
2022-07-29T23:19:35.534Z,22.93
2022-07-29T23:22:02.199Z,22.90
2022-07-29T23:24:28.754Z,22.89
2022-07-29T23:26:55.381Z,22.85
2022-07-29T23:29:22.218Z,22.74
2022-07-29T23:31:48.835Z,22.78
2022-07-29T23:34:15.596Z,22.86
2022-07-29T23:36:42.536Z,22.94
2022-07-29T23:39:13.329Z,22.98
2022-07-29T23:41:40.202Z,22.94
2022-07-29T23:44:07.059Z,22.91
2022-07-29T23:46:33.983Z,22.75
2022-07-29T23:49:00.819Z,22.72
2022-07-29T23:51:29.244Z,22.72
2022-07-29T23:53:56.070Z,22.77
2022-07-29T23:56:23.405Z,22.61
2022-07-29T23:58:50.227Z,22.55
